KI5R Weather Reports


time (UTC)temp
F
wind
direction
speed
knots
gust
knots
rain 1hr
in
rain 24hr
in
rain mn
in
humidity
%
barometer
mb
20211017162523 73 156 0.0 2.6 0.00 0.00 0.00 45 1027.8
20211017161010 69 148 0.9 4.3 0.00 0.00 0.00 46 1027.9
20211017160030 66 189 0.9 2.6 0.00 0.00 0.00 50 1027.9
20211017154641 61 173 0.0 3.5 0.00 0.00 0.00 59 1028.0
20211017152021 55 147 0.0 2.6 0.00 0.00 0.00 73 1028.1
20211017150514 53 146 0.9 4.3 0.00 0.00 0.00 79 1028.1
20211017145529 51 321 0.0 1.7 0.00 0.00 0.00 86 1028.1
20211017145010 51 321 0.0 2.6 0.00 0.00 0.00 87 1028.1
20211017141009 48 348 0.0 0.9 0.00 0.00 0.00 95 1027.6
20211017133023 46 348 0.0 0.0 0.00 0.00 0.00 90 1027.3
20211017131524 46 348 0.0 0.0 0.00 0.00 0.00 89 1027.0
20211017130022 46 348 0.0 0.0 0.00 0.00 0.00 89 1026.9
20211017125030 46 348 0.0 0.0 0.00 0.00 0.00 89 1026.9
20211017123518 46 348 0.0 0.0 0.00 0.00 0.00 89 1026.8
20211017122026 46 348 0.0 0.0 0.00 0.00 0.00 88 1026.9
20211017121609 47 348 0.0 0.0 0.00 0.00 0.00 88 1026.8
20211017121059 47 348 0.0 0.0 0.00 0.00 0.00 88 1026.8
20211017120510 47 348 0.0 0.0 0.00 0.00 0.00 88 1026.8
20211017103531 48 348 0.0 0.0 0.00 0.00 0.00 87 1026.3
20211017102058 48 348 0.0 0.0 0.00 0.00 0.00 87 1026.6
20211017101525 48 348 0.0 0.0 0.00 0.00 0.00 87 1026.6
20211017101022 48 348 0.0 0.0 0.00 0.00 0.00 87 1026.7
20211017100610 48 348 0.0 0.0 0.00 0.00 0.00 87 1026.8
20211017100020 48 348 0.0 0.0 0.00 0.00 0.00 86 1026.6
20211017095517 48 348 0.0 0.0 0.00 0.00 0.00 86 1026.6
20211017095009 48 348 0.0 0.0 0.00 0.00 0.00 86 1026.5
20211017094517 48 348 0.0 0.0 0.00 0.00 0.00 86 1026.5
20211017094009 48 348 0.0 0.0 0.00 0.00 0.00 86 1026.4
20211017091513 49 348 0.0 0.0 0.00 0.00 0.00 86 1026.7
20211017091014 49 348 0.0 0.0 0.00 0.00 0.00 86 1026.7
20211017090507 49 348 0.0 0.0 0.00 0.00 0.00 87 1026.7
20211017083025 49 348 0.0 0.0 0.00 0.00 0.00 85 1026.6
20211017082518 50 348 0.0 0.0 0.00 0.00 0.00 85 1026.6
20211017074019 50 348 0.0 0.0 0.00 0.00 0.00 84 1026.6
20211017073524 50 348 0.0 0.0 0.00 0.00 0.00 83 1026.7
20211017073014 50 348 0.0 0.0 0.00 0.00 0.00 83 1026.7
20211017065609 51 348 0.0 0.0 0.00 0.00 0.00 82 1026.6
20211017065057 51 348 0.0 0.0 0.00 0.00 0.00 82 1026.5
20211017064536 51 348 0.0 0.0 0.00 0.00 0.00 81 1026.5
20211017064054 51 348 0.0 0.0 0.00 0.00 0.00 81 1026.6
20211017063508 51 348 0.0 0.0 0.00 0.00 0.00 81 1026.6
20211017063006 51 348 0.0 0.0 0.00 0.00 0.00 81 1026.4
20211017054537 52 348 0.0 0.0 0.00 0.00 0.00 80 1026.2
20211017054019 52 348 0.0 0.0 0.00 0.00 0.00 80 1026.3
20211017053521 53 348 0.0 0.0 0.00 0.00 0.00 80 1026.3
20211017053004 53 348 0.0 0.0 0.00 0.00 0.00 79 1026.4
20211017052505 53 348 0.0 0.0 0.00 0.00 0.00 79 1026.4
20211017043129 54 348 0.0 0.0 0.00 0.00 0.00 76 1026.7
20211017042534 54 348 0.0 0.0 0.00 0.00 0.00 76 1026.7
20211017042019 54 348 0.0 0.0 0.00 0.00 0.00 75 1026.7
20211017041557 54 348 0.0 0.0 0.00 0.00 0.00 75 1026.8
20211017041014 54 348 0.0 0.0 0.00 0.00 0.00 74 1026.8
20211017040515 54 348 0.0 0.0 0.00 0.00 0.00 74 1026.8
20211017040003 55 348 0.0 0.0 0.00 0.00 0.00 74 1026.8
20211017034635 55 348 0.0 0.0 0.00 0.00 0.00 73 1026.6
20211017034007 55 348 0.0 0.0 0.00 0.00 0.00 73 1026.7
20211017032056 56 348 0.0 0.0 0.00 0.00 0.00 72 1026.6
20211017031506 56 348 0.0 0.0 0.00 0.00 0.00 71 1026.6
20211017030036 56 348 0.0 0.0 0.00 0.00 0.00 70 1026.5
20211017025502 56 348 0.0 0.0 0.00 0.00 0.00 69 1026.4
20211017023533 57 348 0.0 0.0 0.00 0.00 0.00 66 1026.4
20211017023027 57 348 0.0 0.0 0.00 0.00 0.00 66 1026.4
20211017021652 58 348 0.0 0.0 0.00 0.00 0.00 63 1026.5
20211017015014 59 348 0.0 0.0 0.00 0.00 0.00 58 1026.4
20211017013045 60 348 0.0 0.0 0.00 0.00 0.00 55 1026.1
20211017012514 60 348 0.0 0.0 0.00 0.00 0.00 54 1026.1
20211017010134 62 348 0.0 0.0 0.00 0.00 0.00 50 1026.0
20211017003609 63 348 0.0 0.0 0.00 0.00 0.00 46 1025.8
20211017003017 64 348 0.0 0.0 0.00 0.00 0.00 45 1025.8
20211017002502 64 348 0.0 0.0 0.00 0.00 0.00 44 1025.7
20211017000521 65 348 0.0 0.0 0.00 0.00 0.00 42 1025.7
20211016235524 65 348 0.0 2.6 0.00 0.00 0.00 41 1025.7
20211016234531 66 349 0.0 0.9 0.00 0.00 0.00 40 1025.8
20211016233520 66 355 0.0 2.6 0.00 0.00 0.00 41 1025.8
20211016232559 66 45 0.0 2.6 0.00 0.00 0.00 40 1025.9
20211016225007 67 332 0.9 3.5 0.00 0.00 0.00 38 1025.8
20211016224010 67 317 1.7 7.0 0.00 0.00 0.00 36 1025.7
20211016223012 68 5 0.9 5.2 0.00 0.00 0.00 38 1025.9
20211016222019 68 323 0.9 7.0 0.00 0.00 0.00 36 1025.9
20211016221023 68 309 0.9 5.2 0.00 0.00 0.00 35 1025.8
20211016214529 69 343 0.9 4.3 0.00 0.00 0.00 36 1025.9
20211016213519 69 324 1.7 7.8 0.00 0.00 0.00 37 1026.0
20211016212518 69 321 0.9 5.2 0.00 0.00 0.00 36 1026.0
20211016203036 71 51 0.9 5.2 0.00 0.00 0.00 34 1026.6
20211016201507 72 355 0.0 3.5 0.00 0.00 0.00 34 1026.7
20211016200518 73 302 1.7 6.1 0.00 0.00 0.00 33 1026.9
20211016195517 74 319 0.9 7.8 0.00 0.00 0.00 32 1026.9
20211016194534 75 351 0.9 7.0 0.00 0.00 0.00 34 1027.0
20211016191014 78 288 0.9 8.7 0.00 0.00 0.00 32 1027.5
20211016190110 78 319 2.6 8.7 0.00 0.00 0.00 33 1027.6
20211016184515 78 261 1.7 4.3 0.00 0.00 0.00 35 1027.9
20211016181023 78 324 0.0 5.2 0.00 0.00 0.00 38 1028.6
20211016180505 78 355 1.7 5.2 0.00 0.00 0.00 37 1028.7
20211016173022 78 57 0.9 9.6 0.00 0.00 0.00 39 1029.0
20211016170516 76 302 0.0 5.2 0.00 0.00 0.00 41 1029.2